Time;durP1;ratioP1;P1;durP2;ratioP2;P2;SDS_P1;SDS_P2;PMS_P1;PMS_P2;Temp;Humidity;BMP_temperature;BMP_pressure;BME280_temperature;BME280_humidity;BME280_pressure;Samples;Min_cycle;Max_cycle;Signal;HPM_P1;HPM_P2
2022/10/31 00:00:08;;;;;;;;;;;;;;;8.52;100.00;100708.81;3057559;19;20422;-47
2022/10/31 00:01:36;;;;;;;;;;;;;;;8.50;100.00;100708.00;3057637;19;19923;-47
2022/10/31 00:02:38;;;;;;;;;;;;;;;8.48;100.00;100709.88;3056212;19;20255;-45
2022/10/31 00:03:42;;;;;;;;;;;;;;;8.48;100.00;100714.34;3056659;19;19922;-47
2022/10/31 00:04:44;;;;;;;;;;;;;;;8.46;100.00;100711.75;3057138;19;20010;-46
2022/10/31 00:05:51;;;;;;;;;;;;;;;8.46;100.00;100710.88;3057466;19;20225;-47
2022/10/31 00:06:53;;;;;;;;;;;;;;;8.45;100.00;100714.53;3056950;19;19919;-47
2022/10/31 00:07:57;;;;;;;;;;;;;;;8.45;100.00;100709.19;3057521;19;20619;-47
2022/10/31 00:09:00;;;;;;;;;;;;;;;8.47;100.00;100712.63;3057195;19;19942;-49
2022/10/31 00:10:04;;;;;;;;;;;;;;;8.47;100.00;100717.94;3057320;19;19915;-46
2022/10/31 00:11:09;;;;;;;;;;;;;;;8.44;100.00;100713.66;3057026;19;19922;-46
2022/10/31 00:12:14;;;;;;;;;;;;;;;8.43;100.00;100711.94;3057293;19;19941;-46
2022/10/31 00:13:16;;;;;;;;;;;;;;;8.43;100.00;100714.59;3056766;19;19915;-47
2022/10/31 00:14:20;;;;;;;;;;;;;;;8.42;100.00;100707.53;3057224;19;19999;-46
2022/10/31 00:15:22;;;;;;;;;;;;;;;8.43;100.00;100705.75;3056776;19;19950;-47
2022/10/31 00:16:27;;;;;;;;;;;;;;;8.43;100.00;100714.59;3055772;19;19915;-46
2022/10/31 00:17:28;;;;;;;;;;;;;;;8.43;100.00;100711.94;3055888;19;19925;-47
2022/10/31 00:18:33;;;;;;;;;;;;;;;8.43;100.00;100711.06;3056346;19;19919;-46
2022/10/31 00:19:35;;;;;;;;;;;;;;;8.42;100.00;100717.31;3057067;19;19919;-46
2022/10/31 00:20:39;;;;;;;;;;;;;;;8.41;100.00;100718.25;3057186;19;20057;-47
2022/10/31 00:21:41;;;;;;;;;;;;;;;8.42;100.00;100718.19;3057120;19;20249;-45
2022/10/31 00:22:45;;;;;;;;;;;;;;;8.42;100.00;100719.97;3056022;19;19945;-45
2022/10/31 00:23:47;;;;;;;;;;;;;;;8.40;100.00;100719.19;3057005;19;19922;-47
2022/10/31 00:24:52;;;;;;;;;;;;;;;8.39;100.00;100714.81;3057186;19;19922;-47
2022/10/31 00:25:53;;;;;;;;;;;;;;;8.42;100.00;100714.66;3056863;19;19927;-46
2022/10/31 00:26:58;;;;;;;;;;;;;;;8.42;100.00;100707.53;3056060;19;19922;-49
2022/10/31 00:28:00;;;;;;;;;;;;;;;8.42;100.00;100714.66;3055855;19;19981;-47
2022/10/31 00:29:05;;;;;;;;;;;;;;;8.42;100.00;100710.19;3056932;19;20363;-47
2022/10/31 00:30:07;;;;;;;;;;;;;;;8.41;100.00;100707.63;3056561;19;20241;-46
2022/10/31 00:31:13;;;;;;;;;;;;;;;8.41;100.00;100710.28;3056816;19;19935;-45
2022/10/31 00:32:17;;;;;;;;;;;;;;;8.41;100.00;100713.78;3056960;19;19922;-46
2022/10/31 00:33:19;;;;;;;;;;;;;;;8.40;100.00;100711.22;3056927;19;19923;-45
2022/10/31 00:34:23;;;;;;;;;;;;;;;8.39;100.00;100715.66;3056476;19;19925;-46
2022/10/31 00:35:26;;;;;;;;;;;;;;;8.37;100.00;100716.66;3056705;19;19945;-47
2022/10/31 00:36:30;;;;;;;;;;;;;;;8.32;100.00;100713.38;3054599;19;19914;-47
2022/10/31 00:37:32;;;;;;;;;;;;;;;8.30;100.00;100716.94;3055685;19;20262;-46
2022/10/31 00:38:36;;;;;;;;;;;;;;;8.27;100.00;100717.09;3056198;19;20026;-47
2022/10/31 00:39:38;;;;;;;;;;;;;;;8.26;100.00;100718.03;3057030;19;19922;-47
2022/10/31 00:40:42;;;;;;;;;;;;;;;8.24;100.00;100717.22;3056521;19;19970;-48
2022/10/31 00:41:44;;;;;;;;;;;;;;;8.23;100.00;100718.16;3056559;19;19919;-47
2022/10/31 00:42:49;;;;;;;;;;;;;;;8.22;100.00;100715.56;3055883;19;20258;-45
2022/10/31 00:43:51;;;;;;;;;;;;;;;8.20;100.00;100718.34;3055977;19;19942;-47
2022/10/31 00:44:55;;;;;;;;;;;;;;;8.18;100.00;100722.00;3055656;19;19923;-46
2022/10/31 00:45:58;;;;;;;;;;;;;;;8.14;100.00;100721.28;3055553;19;19923;-45
2022/10/31 00:47:02;;;;;;;;;;;;;;;8.15;100.00;100716.81;3055793;19;19927;-45
2022/10/31 00:48:04;;;;;;;;;;;;;;;8.14;100.00;100725.72;3055534;19;20310;-47
2022/10/31 00:49:08;;;;;;;;;;;;;;;8.11;100.00;100721.41;3055864;19;19923;-44
2022/10/31 00:50:10;;;;;;;;;;;;;;;8.09;100.00;100725.94;3056709;19;19934;-46
2022/10/31 00:51:15;;;;;;;;;;;;;;;8.09;100.00;100720.63;3055708;19;19926;-47
2022/10/31 00:52:17;;;;;;;;;;;;;;;8.08;100.00;100724.25;3055796;19;19926;-46
2022/10/31 00:53:21;;;;;;;;;;;;;;;8.07;100.00;100726.97;3056182;19;19934;-47
2022/10/31 00:54:23;;;;;;;;;;;;;;;8.05;100.00;100721.72;3055506;19;20351;-47
2022/10/31 00:55:28;;;;;;;;;;;;;;;8.01;100.00;100720.13;3055584;19;20316;-47
2022/10/31 00:56:32;;;;;;;;;;;;;;;7.99;100.00;100729.09;3054822;19;19918;-46
2022/10/31 00:57:34;;;;;;;;;;;;;;;7.95;100.00;100720.44;3055444;19;19927;-48
2022/10/31 00:58:41;;;;;;;;;;;;;;;7.93;100.00;100722.28;3055335;19;19957;-47
2022/10/31 00:59:43;;;;;;;;;;;;;;;7.90;100.00;100717.13;3055819;19;19938;-47
2022/10/31 01:00:54;;;;;;;;;;;;;;;7.89;100.00;100720.69;3055494;19;19980;-45
2022/10/31 01:01:56;;;;;;;;;;;;;;;7.87;100.00;100717.25;3056476;19;19923;-45
2022/10/31 01:03:02;;;;;;;;;;;;;;;7.87;100.00;100719.91;3055192;19;19923;-45
2022/10/31 01:04:06;;;;;;;;;;;;;;;7.83;100.00;100715.69;3056152;19;19923;-48
2022/10/31 01:05:08;;;;;;;;;;;;;;;7.82;100.00;100714.81;3055268;19;20018;-47
2022/10/31 01:06:15;;;;;;;;;;;;;;;7.82;100.00;100721.94;3055378;19;19930;-47
2022/10/31 01:07:17;;;;;;;;;;;;;;;7.82;100.00;100724.59;3057046;19;19958;-47
2022/10/31 01:08:21;;;;;;;;;;;;;;;7.82;100.00;100725.47;3055406;19;19936;-47
2022/10/31 01:09:23;;;;;;;;;;;;;;;7.82;100.00;100725.47;3055041;19;19987;-45
2022/10/31 01:10:28;;;;;;;;;;;;;;;7.84;100.00;100728.03;3055519;19;19923;-46
2022/10/31 01:11:29;;;;;;;;;;;;;;;7.83;100.00;100727.19;3055398;19;20520;-47
2022/10/31 01:12:43;;;;;;;;;;;;;;;7.84;100.00;100720.94;3055857;19;19926;-46
2022/10/31 01:13:45;;;;;;;;;;;;;;;7.85;100.00;100721.78;3056316;19;19922;-45
2022/10/31 01:14:50;;;;;;;;;;;;;;;7.86;100.00;100715.53;3056199;19;19990;-47
2022/10/31 01:15:55;;;;;;;;;;;;;;;7.87;100.00;100711.94;3055210;19;19938;-47
2022/10/31 01:17:00;;;;;;;;;;;;;;;7.89;100.00;100715.38;3054784;19;19938;-46
2022/10/31 01:18:01;;;;;;;;;;;;;;;7.92;100.00;100712.59;3055133;19;20408;-47
2022/10/31 01:19:07;;;;;;;;;;;;;;;7.93;100.00;100714.31;3055800;19;19992;-48
2022/10/31 01:20:09;;;;;;;;;;;;;;;7.95;100.00;100720.44;3055243;19;20348;-45
2022/10/31 01:21:18;;;;;;;;;;;;;;;7.96;100.00;100711.53;3054962;19;19915;-48
2022/10/31 01:22:22;;;;;;;;;;;;;;;7.95;100.00;100708.00;3055673;19;19986;-45
2022/10/31 01:23:27;;;;;;;;;;;;;;;7.94;100.00;100714.25;3055254;19;20370;-46
2022/10/31 01:24:32;;;;;;;;;;;;;;;7.95;100.00;100707.16;3056725;19;19935;-47
2022/10/31 01:25:36;;;;;;;;;;;;;;;7.95;100.00;100709.81;3056006;19;19926;-47
2022/10/31 01:26:40;;;;;;;;;;;;;;;7.94;100.00;100705.41;3056227;19;19995;-46
2022/10/31 01:27:43;;;;;;;;;;;;;;;7.95;100.00;100700.03;3055510;19;19948;-46
2022/10/31 01:28:49;;;;;;;;;;;;;;;7.94;100.00;100702.75;3055211;19;19926;-45
2022/10/31 01:29:50;;;;;;;;;;;;;;;7.95;100.00;100704.50;3055171;19;19930;-46
2022/10/31 01:30:55;;;;;;;;;;;;;;;7.95;100.00;100700.03;3055003;19;19923;-48
2022/10/31 01:31:57;;;;;;;;;;;;;;;7.95;100.00;100699.19;3056053;19;20324;-47
2022/10/31 01:33:01;;;;;;;;;;;;;;;7.95;100.00;100700.03;3056401;19;20166;-47
2022/10/31 01:34:06;;;;;;;;;;;;;;;7.95;100.00;100700.03;3054155;19;20330;-46
2022/10/31 01:35:09;;;;;;;;;;;;;;;7.93;100.00;100701.91;3054238;19;19932;-46
2022/10/31 01:36:17;;;;;;;;;;;;;;;7.93;100.00;100711.66;3054527;19;20411;-46
2022/10/31 01:37:19;;;;;;;;;;;;;;;7.90;100.00;100703.84;3055788;19;19926;-47
2022/10/31 01:38:23;;;;;;;;;;;;;;;7.88;100.00;100708.34;3055419;19;19922;-45
2022/10/31 01:39:25;;;;;;;;;;;;;;;7.85;100.00;100708.47;3056248;19;19927;-47
2022/10/31 01:40:31;;;;;;;;;;;;;;;7.82;100.00;100704.19;3056103;19;19919;-48
2022/10/31 01:41:34;;;;;;;;;;;;;;;7.81;100.00;100712.25;3056510;19;19922;-46
2022/10/31 01:42:40;;;;;;;;;;;;;;;7.77;100.00;100708.00;3055940;19;19946;-47
2022/10/31 01:43:47;;;;;;;;;;;;;;;7.77;100.00;100706.19;3056361;19;20243;-46
2022/10/31 01:44:54;;;;;;;;;;;;;;;7.75;100.00;100712.50;3055724;19;19922;-47
2022/10/31 01:45:56;;;;;;;;;;;;;;;7.74;100.00;100713.44;3056482;19;19922;-47
2022/10/31 01:47:06;;;;;;;;;;;;;;;7.75;100.00;100718.69;3054932;19;19918;-47
2022/10/31 01:48:15;;;;;;;;;;;;;;;7.77;100.00;100726.59;3055419;19;20361;-47
2022/10/31 01:49:22;;;;;;;;;;;;;;;7.75;100.00;100718.69;3055074;19;19923;-46
2022/10/31 01:50:34;;;;;;;;;;;;;;;7.75;100.00;100710.72;3055534;19;19936;-48
2022/10/31 01:51:39;;;;;;;;;;;;;;;7.78;100.00;100707.91;3055099;19;20257;-48
2022/10/31 01:52:47;;;;;;;;;;;;;;;7.79;100.00;100706.13;3055026;19;20364;-47
2022/10/31 01:53:52;;;;;;;;;;;;;;;7.80;100.00;100708.72;3055241;19;19982;-48
2022/10/31 01:54:56;;;;;;;;;;;;;;;7.82;100.00;100706.00;3054832;19;20600;-45
2022/10/31 01:56:00;;;;;;;;;;;;;;;7.82;100.00;100703.34;3054538;19;20390;-46
2022/10/31 01:57:02;;;;;;;;;;;;;;;7.82;100.00;100698.03;3054855;19;19960;-47
2022/10/31 01:58:08;;;;;;;;;;;;;;;7.82;100.00;100698.03;3055608;19;20351;-46
2022/10/31 01:59:11;;;;;;;;;;;;;;;7.83;100.00;100703.28;3055027;19;19974;-47
2022/10/31 02:00:17;;;;;;;;;;;;;;;7.82;100.00;100698.88;3055511;19;19994;-46
2022/10/31 02:01:21;;;;;;;;;;;;;;;7.82;100.00;100698.88;3055829;19;19941;-46
2022/10/31 02:02:23;;;;;;;;;;;;;;;7.83;100.00;100699.75;3056002;19;19935;-45
2022/10/31 02:03:28;;;;;;;;;;;;;;;7.84;100.00;100701.47;3054927;19;19919;-46
2022/10/31 02:04:31;;;;;;;;;;;;;;;7.86;100.00;100686.28;3054644;19;19948;-46
2022/10/31 02:05:35;;;;;;;;;;;;;;;7.87;100.00;100696.00;3054699;19;20380;-47
2022/10/31 02:06:39;;;;;;;;;;;;;;;7.89;100.00;100702.09;3056115;19;19931;-46
2022/10/31 02:07:58;;;;;;;;;;;;;;;7.89;100.00;100694.13;3054818;19;20353;-45
2022/10/31 02:09:04;;;;;;;;;;;;;;;7.90;100.00;100691.41;3055297;19;19934;-46
2022/10/31 02:10:08;;;;;;;;;;;;;;;7.91;100.00;100693.13;3054684;19;19923;-46
2022/10/31 02:11:13;;;;;;;;;;;;;;;7.93;100.00;100696.59;3055222;19;19934;-47
2022/10/31 02:12:15;;;;;;;;;;;;;;;7.95;100.00;100696.50;3054720;19;19997;-47
2022/10/31 02:13:21;;;;;;;;;;;;;;;7.98;100.00;100696.34;3055083;19;19919;-47
2022/10/31 02:14:24;;;;;;;;;;;;;;;7.99;100.00;100695.41;3054889;19;19919;-46
2022/10/31 02:15:28;;;;;;;;;;;;;;;8.01;100.00;100698.00;3054744;19;20289;-46
2022/10/31 02:16:31;;;;;;;;;;;;;;;8.01;100.00;100690.91;3055052;19;19923;-46
2022/10/31 02:17:35;;;;;;;;;;;;;;;8.03;100.00;100696.13;3054658;19;19923;-45
2022/10/31 02:18:38;;;;;;;;;;;;;;;8.04;100.00;100698.72;3054868;19;19954;-49
2022/10/31 02:19:56;;;;;;;;;;;;;;;8.04;100.00;100693.41;3054545;19;20608;-47
2022/10/31 02:21:02;;;;;;;;;;;;;;;8.08;100.00;100691.47;3055790;19;20344;-47
2022/10/31 02:22:22;;;;;;;;;;;;;;;8.09;100.00;100691.38;3054711;19;19926;-45
2022/10/31 02:23:39;;;;;;;;;;;;;;;8.11;100.00;100694.81;3055388;19;19927;-46
2022/10/31 02:25:07;;;;;;;;;;;;;;;8.14;100.00;100689.38;3054666;19;19926;-46
2022/10/31 02:26:18;;;;;;;;;;;;;;;8.15;100.00;100691.09;3053517;19;20036;-46
2022/10/31 02:27:33;;;;;;;;;;;;;;;8.16;100.00;100692.81;3055199;19;19923;-46
2022/10/31 02:28:53;;;;;;;;;;;;;;;8.17;100.00;100693.69;3054464;19;19949;-45
2022/10/31 02:30:14;;;;;;;;;;;;;;;8.18;100.00;100696.28;3054876;19;19921;-46
2022/10/31 02:31:16;;;;;;;;;;;;;;;8.18;100.00;100692.75;3055039;19;20043;-46
2022/10/31 02:32:31;;;;;;;;;;;;;;;8.18;100.00;100692.75;3054426;19;19923;-47
2022/10/31 02:33:41;;;;;;;;;;;;;;;8.17;100.00;100689.22;3054655;19;19919;-47
2022/10/31 02:35:00;;;;;;;;;;;;;;;8.20;100.00;100688.22;3054765;19;19938;-47
2022/10/31 02:36:05;;;;;;;;;;;;;;;8.16;100.00;100692.81;3054736;19;20345;-47
2022/10/31 02:37:17;;;;;;;;;;;;;;;8.15;100.00;100692.91;3054608;19;19919;-46
2022/10/31 02:38:27;;;;;;;;;;;;;;;8.15;100.00;100696.41;3054244;19;19922;-46
2022/10/31 02:39:39;;;;;;;;;;;;;;;8.15;100.00;100693.75;3054677;19;20027;-47
2022/10/31 02:40:48;;;;;;;;;;;;;;;8.13;100.00;100692.97;3054889;19;19919;-48
2022/10/31 02:42:10;;;;;;;;;;;;;;;8.16;100.00;100695.47;3055096;19;19915;-47
2022/10/31 02:43:20;;;;;;;;;;;;;;;8.17;100.00;100699.88;3054644;19;19926;-45
2022/10/31 02:44:24;;;;;;;;;;;;;;;8.18;100.00;100695.41;3054344;19;20280;-46
2022/10/31 02:45:30;;;;;;;;;;;;;;;8.16;100.00;100698.13;3054910;19;19922;-49
2022/10/31 02:46:35;;;;;;;;;;;;;;;8.15;100.00;100701.72;3057847;19;20362;-47
2022/10/31 02:47:39;;;;;;;;;;;;;;;8.14;100.00;100704.47;3057524;19;19919;-49
2022/10/31 02:48:43;;;;;;;;;;;;;;;8.13;100.00;100698.28;3057909;19;19915;-46
2022/10/31 02:49:45;;;;;;;;;;;;;;;8.14;100.00;100710.63;3057318;19;20362;-46
2022/10/31 02:50:55;;;;;;;;;;;;;;;8.13;100.00;100702.72;3057534;19;19983;-46
2022/10/31 02:51:57;;;;;;;;;;;;;;;8.13;100.00;100705.38;3057698;19;19915;-48
2022/10/31 02:53:01;;;;;;;;;;;;;;;8.11;100.00;100710.78;3057980;19;19947;-47
2022/10/31 02:54:03;;;;;;;;;;;;;;;8.09;100.00;100709.97;3057451;19;19932;-46
2022/10/31 02:55:12;;;;;;;;;;;;;;;8.08;100.00;100715.41;3057320;19;19923;-48
2022/10/31 02:56:15;;;;;;;;;;;;;;;8.04;100.00;100714.69;3056712;19;19918;-48
2022/10/31 02:57:26;;;;;;;;;;;;;;;8.02;100.00;100705.03;3057557;19;20028;-47
2022/10/31 02:58:30;;;;;;;;;;;;;;;7.99;100.00;100716.69;3056874;19;19986;-46
2022/10/31 02:59:34;;;;;;;;;;;;;;;7.96;100.00;100722.16;3057316;19;20711;-46
2022/10/31 03:00:50;;;;;;;;;;;;;;;7.92;100.00;100721.44;3057672;19;20428;-46
2022/10/31 03:01:55;;;;;;;;;;;;;;;7.88;100.00;100724.28;3056417;19;19914;-46
2022/10/31 03:03:00;;;;;;;;;;;;;;;7.86;100.00;100732.31;3057663;19;20307;-48
2022/10/31 03:04:06;;;;;;;;;;;;;;;7.82;100.00;100736.09;3057368;19;19919;-50
2022/10/31 03:05:20;;;;;;;;;;;;;;;7.80;100.00;100732.63;3057707;19;19950;-47
2022/10/31 03:06:32;;;;;;;;;;;;;;;7.78;100.00;100734.50;3057371;19;19923;-46
2022/10/31 03:07:33;;;;;;;;;;;;;;;7.76;100.00;100735.47;3057824;19;19923;-46
2022/10/31 03:08:42;;;;;;;;;;;;;;;7.73;100.00;100741.78;3058476;19;19986;-48
2022/10/31 03:09:52;;;;;;;;;;;;;;;7.74;100.00;100745.31;3057310;19;20007;-46
2022/10/31 03:11:04;;;;;;;;;;;;;;;7.71;100.00;100742.81;3057811;19;19927;-47
2022/10/31 03:12:26;;;;;;;;;;;;;;;7.70;100.00;100751.72;3057400;19;19919;-47
2022/10/31 03:13:51;;;;;;;;;;;;;;;7.69;100.00;100750.84;3057505;19;19919;-47
2022/10/31 03:14:53;;;;;;;;;;;;;;;7.69;100.00;100742.88;3057132;19;19914;-47
2022/10/31 03:16:02;;;;;;;;;;;;;;;7.71;100.00;100748.13;3057681;19;19941;-47
2022/10/31 03:17:05;;;;;;;;;;;;;;;7.73;100.00;100757.72;3057233;19;19946;-47
2022/10/31 03:18:30;;;;;;;;;;;;;;;7.74;100.00;100747.97;3057054;19;19951;-47
2022/10/31 03:19:33;;;;;;;;;;;;;;;7.77;100.00;100747.84;3057339;19;19946;-46
2022/10/31 03:20:42;;;;;;;;;;;;;;;7.78;100.00;100754.88;3057327;19;19965;-47
2022/10/31 03:21:54;;;;;;;;;;;;;;;7.80;100.00;100753.03;3057594;19;19919;-46
2022/10/31 03:22:59;;;;;;;;;;;;;;;7.82;100.00;100757.34;3057509;19;20386;-46
2022/10/31 03:24:00;;;;;;;;;;;;;;;7.84;100.00;100755.47;3057376;19;19942;-46
2022/10/31 03:25:05;;;;;;;;;;;;;;;7.87;100.00;100754.44;3056795;19;19930;-46
2022/10/31 03:26:08;;;;;;;;;;;;;;;7.89;100.00;100752.59;3057535;19;19978;-46
2022/10/31 03:27:14;;;;;;;;;;;;;;;7.92;100.00;100747.13;3057169;19;19938;-48
2022/10/31 03:28:17;;;;;;;;;;;;;;;7.95;100.00;100754.97;3057470;19;19984;-48
2022/10/31 03:29:23;;;;;;;;;;;;;;;7.99;100.00;100756.53;3057014;19;19926;-46
2022/10/31 03:30:25;;;;;;;;;;;;;;;8.02;100.00;100756.41;3057433;19;19942;-47
2022/10/31 03:31:35;;;;;;;;;;;;;;;8.04;100.00;100746.56;3056550;19;19995;-46
2022/10/31 03:32:41;;;;;;;;;;;;;;;8.09;100.00;100751.69;3038287;19;20255;-49
2022/10/31 03:33:46;;;;;;;;;;;;;;;8.10;100.00;100756.03;3053973;19;19923;-48
2022/10/31 03:34:48;;;;;;;;;;;;;;;8.10;100.00;100758.69;3056067;19;19932;-45
2022/10/31 03:35:53;;;;;;;;;;;;;;;8.06;100.00;100750.03;3057012;19;20014;-48
2022/10/31 03:36:56;;;;;;;;;;;;;;;8.18;100.00;100761.88;3056559;19;19923;-48
2022/10/31 03:38:00;;;;;;;;;;;;;;;8.21;100.00;100759.91;3056930;19;19995;-46
2022/10/31 03:39:09;;;;;;;;;;;;;;;8.25;100.00;100757.97;3056015;19;20705;-47
2022/10/31 03:40:14;;;;;;;;;;;;;;;8.28;100.00;100757.84;3056748;19;19922;-45
2022/10/31 03:41:18;;;;;;;;;;;;;;;8.34;100.00;100759.34;3056905;19;20403;-46
2022/10/31 03:42:24;;;;;;;;;;;;;;;8.40;100.00;100753.75;3056835;19;19911;-47
2022/10/31 03:43:27;;;;;;;;;;;;;;;8.45;100.00;100751.75;3057246;19;19926;-44
2022/10/31 03:44:31;;;;;;;;;;;;;;;8.52;100.00;100758.47;3056440;19;20012;-47
2022/10/31 03:45:40;;;;;;;;;;;;;;;8.58;100.00;100758.16;3056455;19;19915;-45
2022/10/31 03:46:42;;;;;;;;;;;;;;;8.64;100.00;100758.75;3056846;19;19926;-49
2022/10/31 03:47:46;;;;;;;;;;;;;;;8.73;100.00;100756.56;3056921;19;19986;-44
2022/10/31 03:48:49;;;;;;;;;;;;;;;8.80;100.00;100758.84;3056478;19;19918;-46
2022/10/31 03:49:54;;;;;;;;;;;;;;;8.87;100.00;100757.59;3056558;19;20301;-47
2022/10/31 03:50:56;;;;;;;;;;;;;;;8.95;100.00;100752.72;3056503;19;19915;-48
2022/10/31 03:52:00;;;;;;;;;;;;;;;9.01;100.00;100752.44;3056907;19;20534;-47
2022/10/31 03:53:16;;;;;;;;;;;;;;;9.08;100.00;100752.13;3056454;19;19943;-46
2022/10/31 03:54:26;;;;;;;;;;;;;;;9.18;100.00;100753.34;3056641;19;19935;-48
2022/10/31 03:55:33;;;;;;;;;;;;;;;9.25;100.00;100754.78;3056659;19;19919;-44
2022/10/31 03:56:39;;;;;;;;;;;;;;;9.32;100.00;100751.72;3056927;19;20016;-47
2022/10/31 03:57:48;;;;;;;;;;;;;;;9.40;100.00;100748.66;3054738;19;19923;-45
2022/10/31 03:58:55;;;;;;;;;;;;;;;9.48;100.00;100757.09;3056146;19;19927;-46
2022/10/31 04:00:10;;;;;;;;;;;;;;;9.55;100.00;100746.97;3056390;19;19928;-47
2022/10/31 04:01:18;;;;;;;;;;;;;;;9.61;100.00;100744.84;3056356;19;20002;-47
2022/10/31 04:02:24;;;;;;;;;;;;;;;9.65;100.00;100749.09;3056926;19;19923;-47
2022/10/31 04:03:27;;;;;;;;;;;;;;;9.69;100.00;100745.28;3056381;19;19929;-48
2022/10/31 04:04:33;;;;;;;;;;;;;;;9.72;100.00;100742.47;3056571;19;19935;-46
2022/10/31 04:05:35;;;;;;;;;;;;;;;9.75;100.00;100744.97;3056445;19;19951;-47
2022/10/31 04:06:40;;;;;;;;;;;;;;;9.78;100.00;100738.59;3056496;19;19919;-48
2022/10/31 04:07:42;;;;;;;;;;;;;;;9.81;100.00;100742.91;3056343;19;19915;-47
2022/10/31 04:08:48;;;;;;;;;;;;;;;9.82;100.00;100741.97;3056530;19;20254;-45
2022/10/31 04:09:52;;;;;;;;;;;;;;;9.83;100.00;100746.34;3056208;19;19926;-47
2022/10/31 04:10:57;;;;;;;;;;;;;;;9.87;100.00;100748.78;3056631;19;19922;-46
2022/10/31 04:11:59;;;;;;;;;;;;;;;9.91;100.00;100744.13;3056118;19;19990;-48
2022/10/31 04:13:14;;;;;;;;;;;;;;;9.92;100.00;100745.84;3056637;19;20242;-45
2022/10/31 04:14:20;;;;;;;;;;;;;;;9.93;100.00;100752.91;3055647;19;19926;-46
2022/10/31 04:15:24;;;;;;;;;;;;;;;9.96;100.00;100750.06;3056631;19;19918;-44
2022/10/31 04:16:27;;;;;;;;;;;;;;;9.95;100.00;100751.88;3056298;19;19998;-45
2022/10/31 04:17:32;;;;;;;;;;;;;;;9.96;100.00;100753.59;3056371;19;19955;-46
2022/10/31 04:18:34;;;;;;;;;;;;;;;9.96;100.00;100752.75;3056252;19;19921;-47
2022/10/31 04:19:39;;;;;;;;;;;;;;;9.94;100.00;100743.97;3055478;19;19948;-46
2022/10/31 04:20:41;;;;;;;;;;;;;;;9.94;100.00;100749.28;3056385;19;19983;-46
2022/10/31 04:21:47;;;;;;;;;;;;;;;9.89;100.00;100746.91;3056130;19;19915;-45
2022/10/31 04:22:49;;;;;;;;;;;;;;;9.88;100.00;100754.97;3056526;19;19931;-47
2022/10/31 04:23:54;;;;;;;;;;;;;;;9.86;100.00;100751.53;3056011;19;20214;-47
2022/10/31 04:24:59;;;;;;;;;;;;;;;9.82;100.00;100755.28;3056048;19;19922;-45
2022/10/31 04:26:03;;;;;;;;;;;;;;;9.79;100.00;100744.78;3056048;19;19919;-46
2022/10/31 04:27:05;;;;;;;;;;;;;;;9.74;100.00;100758.38;3057567;19;19931;-49
2022/10/31 04:28:10;;;;;;;;;;;;;;;9.70;100.00;100756.81;3057352;19;19919;-47
2022/10/31 04:29:11;;;;;;;;;;;;;;;9.63;100.00;100761.63;3056684;19;19942;-47
2022/10/31 04:30:16;;;;;;;;;;;;;;;9.60;100.00;100764.44;3056632;19;20017;-48
2022/10/31 04:31:18;;;;;;;;;;;;;;;9.55;100.00;100773.59;3056031;19;20393;-46
2022/10/31 04:32:25;;;;;;;;;;;;;;;9.49;100.00;100765.97;3055904;19;19995;-47
2022/10/31 04:33:28;;;;;;;;;;;;;;;9.43;100.00;100769.78;3056284;19;20361;-47
2022/10/31 04:34:32;;;;;;;;;;;;;;;9.39;100.00;100777.09;3054722;19;19923;-46
2022/10/31 04:35:34;;;;;;;;;;;;;;;9.34;100.00;100783.59;3056162;19;20341;-47
2022/10/31 04:36:39;;;;;;;;;;;;;;;9.29;100.00;100777.66;3055959;19;19922;-48
2022/10/31 04:37:42;;;;;;;;;;;;;;;9.23;100.00;100780.63;3056443;19;20649;-46
2022/10/31 04:38:46;;;;;;;;;;;;;;;9.14;100.00;100783.75;3056034;19;19926;-48
2022/10/31 04:40:01;;;;;;;;;;;;;;;9.06;100.00;100788.63;3055293;19;20610;-47
2022/10/31 04:41:24;;;;;;;;;;;;;;;8.96;100.00;100786.41;3056446;19;19921;-47
2022/10/31 04:42:37;;;;;;;;;;;;;;;8.90;100.00;100784.06;3055654;19;19994;-45
2022/10/31 04:43:43;;;;;;;;;;;;;;;8.87;100.00;100784.22;3056044;19;19943;-47
2022/10/31 04:44:45;;;;;;;;;;;;;;;8.83;100.00;100789.75;3055821;19;19993;-47
2022/10/31 04:45:50;;;;;;;;;;;;;;;8.81;100.00;100784.53;3056454;19;20475;-47
2022/10/31 04:46:53;;;;;;;;;;;;;;;8.78;100.00;100786.47;3056095;19;19919;-47
2022/10/31 04:47:57;;;;;;;;;;;;;;;8.74;100.00;100785.75;3056258;19;20014;-48
2022/10/31 04:48:59;;;;;;;;;;;;;;;8.73;100.00;100793.81;3055969;19;19915;-48
2022/10/31 04:50:04;;;;;;;;;;;;;;;8.71;100.00;100791.22;3056013;19;19923;-45
2022/10/31 04:51:08;;;;;;;;;;;;;;;8.70;100.00;100793.94;3055690;19;19929;-45
2022/10/31 04:52:13;;;;;;;;;;;;;;;8.68;100.00;100795.84;3055153;19;19982;-44
2022/10/31 04:53:15;;;;;;;;;;;;;;;8.66;100.00;100798.59;3055616;19;20615;-47
2022/10/31 04:54:42;;;;;;;;;;;;;;;8.65;100.00;100794.19;3057423;19;20322;-46
2022/10/31 04:56:07;;;;;;;;;;;;;;;8.61;100.00;100793.47;3054888;19;20389;-44
2022/10/31 04:57:14;;;;;;;;;;;;;;;8.60;100.00;100798.84;3055402;19;20426;-44
2022/10/31 04:58:20;;;;;;;;;;;;;;;8.58;100.00;100796.28;3055825;19;19963;-47
2022/10/31 04:59:23;;;;;;;;;;;;;;;8.59;100.00;100805.13;3055389;19;20263;-47
2022/10/31 05:00:30;;;;;;;;;;;;;;;8.57;100.00;100793.72;3055035;19;20341;-46
2022/10/31 05:01:36;;;;;;;;;;;;;;;8.57;100.00;100797.19;3056074;19;19919;-47
2022/10/31 05:02:51;;;;;;;;;;;;;;;8.55;100.00;100791.13;3055174;19;19955;-49
2022/10/31 05:03:53;;;;;;;;;;;;;;;8.55;100.00;100790.25;3055549;19;19926;-45
2022/10/31 05:04:57;;;;;;;;;;;;;;;8.54;100.00;100784.06;3055463;19;19918;-47
2022/10/31 05:05:59;;;;;;;;;;;;;;;8.53;100.00;100786.81;3056578;19;19919;-47
2022/10/31 05:07:04;;;;;;;;;;;;;;;8.50;100.00;100777.16;3055876;19;20326;-49
2022/10/31 05:08:06;;;;;;;;;;;;;;;8.51;100.00;100788.66;3055366;19;19978;-43
2022/10/31 05:09:11;;;;;;;;;;;;;;;8.48;100.00;100787.00;3055842;19;19926;-47
2022/10/31 05:10:14;;;;;;;;;;;;;;;8.47;100.00;100787.09;3055398;19;20011;-49
2022/10/31 05:11:19;;;;;;;;;;;;;;;8.44;100.00;100793.44;3055876;19;19939;-47
2022/10/31 05:12:21;;;;;;;;;;;;;;;8.41;100.00;100787.41;3054962;19;19927;-48
2022/10/31 05:13:43;;;;;;;;;;;;;;;8.38;100.00;100782.22;3056027;19;19915;-45
2022/10/31 05:14:48;;;;;;;;;;;;;;;8.37;100.00;100788.47;3055484;19;19923;-47
2022/10/31 05:16:10;;;;;;;;;;;;;;;8.35;100.00;100795.66;3056081;19;19951;-48
2022/10/31 05:17:15;;;;;;;;;;;;;;;8.33;100.00;100789.56;3056888;19;19919;-45
2022/10/31 05:18:38;;;;;;;;;;;;;;;8.32;100.00;100793.16;3056944;19;19955;-55
2022/10/31 05:19:58;;;;;;;;;;;;;;;8.29;100.00;100792.34;3056053;19;20245;-48
2022/10/31 05:21:21;;;;;;;;;;;;;;;8.29;100.00;100787.00;3055726;19;19960;-47
2022/10/31 05:22:26;;;;;;;;;;;;;;;8.28;100.00;100785.28;3055979;19;19922;-46
2022/10/31 05:23:31;;;;;;;;;;;;;;;8.29;100.00;100789.66;3055668;19;19986;-45
2022/10/31 05:24:33;;;;;;;;;;;;;;;8.30;100.00;100786.09;3055592;19;19923;-48
2022/10/31 05:25:38;;;;;;;;;;;;;;;8.32;100.00;100779.88;3055441;19;20436;-48
2022/10/31 05:26:41;;;;;;;;;;;;;;;8.33;100.00;100785.13;3055584;19;20069;-46
2022/10/31 05:27:46;;;;;;;;;;;;;;;8.33;100.00;100777.13;3055364;19;19922;-44
2022/10/31 05:28:48;;;;;;;;;;;;;;;8.34;100.00;100780.63;3055308;19;19944;-48
2022/10/31 05:29:53;;;;;;;;;;;;;;;8.34;100.00;100781.50;3055218;19;19923;-48
2022/10/31 05:30:55;;;;;;;;;;;;;;;8.34;100.00;100780.63;3054230;19;19923;-44
2022/10/31 05:31:59;;;;;;;;;;;;;;;8.34;100.00;100780.63;3056204;19;19932;-47
2022/10/31 05:33:22;;;;;;;;;;;;;;;8.32;100.00;100778.06;3055649;19;19925;-48
2022/10/31 05:34:42;;;;;;;;;;;;;;;8.32;100.00;100779.88;3056080;19;20337;-47
2022/10/31 05:36:22;;;;;;;;;;;;;;;8.27;100.00;100778.25;3054408;19;20599;-45
2022/10/31 05:37:31;;;;;;;;;;;;;;;8.24;100.00;100781.03;3054454;19;19976;-44
2022/10/31 05:38:36;;;;;;;;;;;;;;;8.22;100.00;100785.56;3054516;19;20337;-46
2022/10/31 05:39:48;;;;;;;;;;;;;;;8.20;100.00;100790.13;3055201;19;19927;-43